Terminal Aerodrome Forecast
Issued by NWS

Home | Current Version | Previous Version | Text Only | Print | Product List | Glossary On
Versions: 1 2 3 4 5 6 7 8 9 10 11 12 13 14 15 16 17 18 19 20 21 22 23 24 25 26 27 28 29
000
FTUS41 KALY 230539
TAFPSF
TAF
KPSF 230539Z 2306/2406 31014G22KT P6SM BKN028
      TEMPO 2308/2310 SCT028
     FM231000 31010G16KT P6SM FEW025
     FM231200 31009KT P6SM FEW200
     FM231700 30010KT P6SM BKN200
     FM232200 29007KT P6SM BKN100=

USA.gov is the U.S. government's official web portal to all federal, state and local government web resources and services.